sensor_id;sensor_type;location;lat;lon;timestamp;P1;durP1;ratioP1;P2;durP2;ratioP2
18286;SDS011;9269;50.838;12.094;2022-09-11T00:01:41;4.30;;;3.37;;
18286;SDS011;9269;50.838;12.094;2022-09-11T00:04:09;4.87;;;3.67;;
18286;SDS011;9269;50.838;12.094;2022-09-11T00:06:38;3.73;;;3.33;;
18286;SDS011;9269;50.838;12.094;2022-09-11T00:09:08;3.33;;;3.00;;
18286;SDS011;9269;50.838;12.094;2022-09-11T00:11:37;3.60;;;3.30;;
18286;SDS011;9269;50.838;12.094;2022-09-11T00:14:08;3.77;;;3.23;;
18286;SDS011;9269;50.838;12.094;2022-09-11T00:16:39;4.43;;;3.27;;
18286;SDS011;9269;50.838;12.094;2022-09-11T00:19:11;3.73;;;3.43;;
18286;SDS011;9269;50.838;12.094;2022-09-11T00:21:42;3.87;;;3.50;;
18286;SDS011;9269;50.838;12.094;2022-09-11T00:24:12;3.50;;;3.07;;
18286;SDS011;9269;50.838;12.094;2022-09-11T00:26:40;4.23;;;3.47;;
18286;SDS011;9269;50.838;12.094;2022-09-11T00:29:09;4.07;;;3.70;;
18286;SDS011;9269;50.838;12.094;2022-09-11T00:31:37;4.30;;;3.50;;
18286;SDS011;9269;50.838;12.094;2022-09-11T00:34:06;3.53;;;3.23;;
18286;SDS011;9269;50.838;12.094;2022-09-11T00:36:35;3.93;;;3.40;;
18286;SDS011;9269;50.838;12.094;2022-09-11T00:39:06;4.33;;;3.43;;
18286;SDS011;9269;50.838;12.094;2022-09-11T00:41:38;3.80;;;3.37;;
18286;SDS011;9269;50.838;12.094;2022-09-11T00:47:11;5.43;;;3.33;;
18286;SDS011;9269;50.838;12.094;2022-09-11T00:49:43;3.80;;;3.23;;
18286;SDS011;9269;50.838;12.094;2022-09-11T00:52:15;3.57;;;3.20;;
18286;SDS011;9269;50.838;12.094;2022-09-11T00:54:48;3.70;;;3.20;;
18286;SDS011;9269;50.838;12.094;2022-09-11T00:57:21;3.80;;;3.37;;
18286;SDS011;9269;50.838;12.094;2022-09-11T00:59:53;3.67;;;3.37;;
18286;SDS011;9269;50.838;12.094;2022-09-11T01:02:25;4.20;;;3.57;;
18286;SDS011;9269;50.838;12.094;2022-09-11T01:04:58;4.37;;;3.50;;
18286;SDS011;9269;50.838;12.094;2022-09-11T01:07:26;3.80;;;3.50;;
18286;SDS011;9269;50.838;12.094;2022-09-11T01:09:58;3.47;;;3.17;;
18286;SDS011;9269;50.838;12.094;2022-09-11T01:12:29;7.57;;;6.03;;
18286;SDS011;9269;50.838;12.094;2022-09-11T01:15:03;5.63;;;4.63;;
18286;SDS011;9269;50.838;12.094;2022-09-11T01:17:36;8.37;;;6.30;;
18286;SDS011;9269;50.838;12.094;2022-09-11T01:20:20;8.73;;;6.30;;
18286;SDS011;9269;50.838;12.094;2022-09-11T01:23:09;8.13;;;6.20;;
18286;SDS011;9269;50.838;12.094;2022-09-11T01:25:57;11.20;;;6.37;;
18286;SDS011;9269;50.838;12.094;2022-09-11T01:28:37;6.63;;;5.87;;
18286;SDS011;9269;50.838;12.094;2022-09-11T01:31:13;8.47;;;5.63;;
18286;SDS011;9269;50.838;12.094;2022-09-11T01:33:48;6.27;;;5.17;;
18286;SDS011;9269;50.838;12.094;2022-09-11T01:36:24;7.80;;;6.27;;
18286;SDS011;9269;50.838;12.094;2022-09-11T01:38:57;6.53;;;5.47;;
18286;SDS011;9269;50.838;12.094;2022-09-11T01:41:29;5.97;;;4.93;;
18286;SDS011;9269;50.838;12.094;2022-09-11T01:44:03;7.80;;;5.20;;
18286;SDS011;9269;50.838;12.094;2022-09-11T01:46:37;7.30;;;6.20;;
18286;SDS011;9269;50.838;12.094;2022-09-11T01:49:09;7.30;;;5.93;;
18286;SDS011;9269;50.838;12.094;2022-09-11T01:51:43;6.63;;;5.47;;
18286;SDS011;9269;50.838;12.094;2022-09-11T01:54:14;8.97;;;5.87;;
18286;SDS011;9269;50.838;12.094;2022-09-11T01:56:45;8.27;;;5.70;;
18286;SDS011;9269;50.838;12.094;2022-09-11T01:59:19;7.60;;;5.70;;
18286;SDS011;9269;50.838;12.094;2022-09-11T02:01:57;6.50;;;5.03;;
18286;SDS011;9269;50.838;12.094;2022-09-11T02:04:29;6.03;;;5.20;;
18286;SDS011;9269;50.838;12.094;2022-09-11T02:07:04;6.63;;;4.87;;
18286;SDS011;9269;50.838;12.094;2022-09-11T02:09:38;6.60;;;5.07;;
18286;SDS011;9269;50.838;12.094;2022-09-11T02:12:10;5.60;;;4.70;;
18286;SDS011;9269;50.838;12.094;2022-09-11T02:14:43;7.37;;;4.30;;
18286;SDS011;9269;50.838;12.094;2022-09-11T02:17:16;6.50;;;4.83;;
18286;SDS011;9269;50.838;12.094;2022-09-11T02:19:53;4.50;;;4.10;;
18286;SDS011;9269;50.838;12.094;2022-09-11T02:22:24;4.83;;;4.13;;
18286;SDS011;9269;50.838;12.094;2022-09-11T02:24:53;5.03;;;4.17;;
18286;SDS011;9269;50.838;12.094;2022-09-11T02:27:23;5.47;;;4.07;;
18286;SDS011;9269;50.838;12.094;2022-09-11T02:29:55;4.57;;;4.17;;
18286;SDS011;9269;50.838;12.094;2022-09-11T02:32:24;4.87;;;3.87;;
18286;SDS011;9269;50.838;12.094;2022-09-11T02:34:53;4.60;;;3.90;;
18286;SDS011;9269;50.838;12.094;2022-09-11T02:37:25;5.13;;;4.03;;
18286;SDS011;9269;50.838;12.094;2022-09-11T02:40:06;8.30;;;5.13;;
18286;SDS011;9269;50.838;12.094;2022-09-11T02:42:53;6.77;;;4.10;;
18286;SDS011;9269;50.838;12.094;2022-09-11T02:52:55;7.90;;;5.97;;
18286;SDS011;9269;50.838;12.094;2022-09-11T02:55:30;9.83;;;6.73;;
18286;SDS011;9269;50.838;12.094;2022-09-11T02:58:08;8.90;;;6.50;;
18286;SDS011;9269;50.838;12.094;2022-09-11T03:00:42;12.30;;;7.00;;
18286;SDS011;9269;50.838;12.094;2022-09-11T03:03:14;8.67;;;6.20;;
18286;SDS011;9269;50.838;12.094;2022-09-11T03:05:43;9.03;;;6.43;;
18286;SDS011;9269;50.838;12.094;2022-09-11T03:08:12;6.50;;;5.90;;
18286;SDS011;9269;50.838;12.094;2022-09-11T03:10:42;8.00;;;5.67;;
18286;SDS011;9269;50.838;12.094;2022-09-11T03:13:12;8.17;;;5.90;;
18286;SDS011;9269;50.838;12.094;2022-09-11T03:15:40;10.07;;;5.93;;
18286;SDS011;9269;50.838;12.094;2022-09-11T03:18:10;6.03;;;4.87;;
18286;SDS011;9269;50.838;12.094;2022-09-11T03:20:44;5.57;;;5.00;;
18286;SDS011;9269;50.838;12.094;2022-09-11T03:23:13;5.33;;;4.83;;
18286;SDS011;9269;50.838;12.094;2022-09-11T03:25:41;5.40;;;4.80;;
18286;SDS011;9269;50.838;12.094;2022-09-11T03:28:09;5.00;;;4.50;;
18286;SDS011;9269;50.838;12.094;2022-09-11T03:30:38;7.53;;;4.30;;
18286;SDS011;9269;50.838;12.094;2022-09-11T03:33:07;5.03;;;4.57;;
18286;SDS011;9269;50.838;12.094;2022-09-11T03:35:37;5.00;;;4.57;;
18286;SDS011;9269;50.838;12.094;2022-09-11T03:38:06;7.40;;;4.93;;
18286;SDS011;9269;50.838;12.094;2022-09-11T03:40:34;5.23;;;4.33;;
18286;SDS011;9269;50.838;12.094;2022-09-11T03:43:03;7.10;;;4.90;;
18286;SDS011;9269;50.838;12.094;2022-09-11T03:45:32;5.90;;;4.63;;
18286;SDS011;9269;50.838;12.094;2022-09-11T03:48:01;5.80;;;4.83;;
18286;SDS011;9269;50.838;12.094;2022-09-11T03:50:29;6.87;;;4.63;;
18286;SDS011;9269;50.838;12.094;2022-09-11T03:52:57;6.00;;;4.73;;
18286;SDS011;9269;50.838;12.094;2022-09-11T03:55:27;5.87;;;4.60;;
18286;SDS011;9269;50.838;12.094;2022-09-11T03:57:58;7.67;;;4.90;;
18286;SDS011;9269;50.838;12.094;2022-09-11T04:00:26;5.90;;;4.13;;
18286;SDS011;9269;50.838;12.094;2022-09-11T04:02:56;5.23;;;4.50;;
18286;SDS011;9269;50.838;12.094;2022-09-11T04:05:24;7.43;;;4.67;;
18286;SDS011;9269;50.838;12.094;2022-09-11T04:07:52;7.23;;;4.63;;
18286;SDS011;9269;50.838;12.094;2022-09-11T04:10:21;5.80;;;4.83;;
18286;SDS011;9269;50.838;12.094;2022-09-11T04:12:51;4.97;;;4.47;;
18286;SDS011;9269;50.838;12.094;2022-09-11T04:15:19;5.07;;;4.60;;
18286;SDS011;9269;50.838;12.094;2022-09-11T04:17:47;5.80;;;4.87;;
18286;SDS011;9269;50.838;12.094;2022-09-11T04:20:16;4.63;;;4.23;;
18286;SDS011;9269;50.838;12.094;2022-09-11T04:22:44;4.57;;;4.17;;
18286;SDS011;9269;50.838;12.094;2022-09-11T04:25:13;5.20;;;4.63;;
18286;SDS011;9269;50.838;12.094;2022-09-11T04:27:42;4.70;;;4.07;;
18286;SDS011;9269;50.838;12.094;2022-09-11T04:30:12;4.43;;;4.03;;
18286;SDS011;9269;50.838;12.094;2022-09-11T04:32:40;5.30;;;3.87;;
18286;SDS011;9269;50.838;12.094;2022-09-11T04:35:10;4.10;;;3.80;;
18286;SDS011;9269;50.838;12.094;2022-09-11T04:37:39;4.23;;;3.93;;
18286;SDS011;9269;50.838;12.094;2022-09-11T04:40:07;4.60;;;4.20;;
18286;SDS011;9269;50.838;12.094;2022-09-11T04:42:36;4.17;;;3.87;;
18286;SDS011;9269;50.838;12.094;2022-09-11T04:45:05;4.80;;;4.40;;
18286;SDS011;9269;50.838;12.094;2022-09-11T04:47:35;4.20;;;3.90;;
18286;SDS011;9269;50.838;12.094;2022-09-11T04:50:05;4.67;;;4.20;;
18286;SDS011;9269;50.838;12.094;2022-09-11T04:52:34;4.13;;;3.83;;
18286;SDS011;9269;50.838;12.094;2022-09-11T04:55:02;4.50;;;4.20;;
18286;SDS011;9269;50.838;12.094;2022-09-11T04:57:32;4.23;;;3.90;;
18286;SDS011;9269;50.838;12.094;2022-09-11T05:00:01;4.83;;;4.10;;
18286;SDS011;9269;50.838;12.094;2022-09-11T05:02:30;4.83;;;4.17;;
18286;SDS011;9269;50.838;12.094;2022-09-11T05:05:00;4.40;;;4.00;;
18286;SDS011;9269;50.838;12.094;2022-09-11T05:07:28;4.60;;;4.20;;
18286;SDS011;9269;50.838;12.094;2022-09-11T05:09:57;5.30;;;4.67;;
18286;SDS011;9269;50.838;12.094;2022-09-11T05:12:25;4.60;;;4.13;;
18286;SDS011;9269;50.838;12.094;2022-09-11T05:14:54;4.17;;;3.87;;
18286;SDS011;9269;50.838;12.094;2022-09-11T05:17:22;4.03;;;3.73;;
18286;SDS011;9269;50.838;12.094;2022-09-11T05:19:50;4.43;;;4.13;;
18286;SDS011;9269;50.838;12.094;2022-09-11T05:22:20;4.97;;;4.37;;
18286;SDS011;9269;50.838;12.094;2022-09-11T05:24:49;4.60;;;4.20;;
18286;SDS011;9269;50.838;12.094;2022-09-11T05:27:18;3.73;;;3.43;;
18286;SDS011;9269;50.838;12.094;2022-09-11T05:29:46;4.77;;;4.37;;
18286;SDS011;9269;50.838;12.094;2022-09-11T05:32:14;4.07;;;3.70;;
18286;SDS011;9269;50.838;12.094;2022-09-11T05:34:42;4.63;;;3.93;;
18286;SDS011;9269;50.838;12.094;2022-09-11T05:37:11;4.27;;;3.90;;
18286;SDS011;9269;50.838;12.094;2022-09-11T05:39:41;4.50;;;4.10;;
18286;SDS011;9269;50.838;12.094;2022-09-11T05:42:09;5.37;;;4.87;;
18286;SDS011;9269;50.838;12.094;2022-09-11T05:44:37;4.70;;;4.23;;
18286;SDS011;9269;50.838;12.094;2022-09-11T05:47:06;5.33;;;4.83;;
18286;SDS011;9269;50.838;12.094;2022-09-11T05:49:34;5.33;;;4.10;;
18286;SDS011;9269;50.838;12.094;2022-09-11T05:52:02;4.90;;;4.40;;
18286;SDS011;9269;50.838;12.094;2022-09-11T05:54:31;6.10;;;4.50;;
18286;SDS011;9269;50.838;12.094;2022-09-11T05:57:00;4.80;;;4.40;;
18286;SDS011;9269;50.838;12.094;2022-09-11T05:59:33;5.33;;;4.83;;
18286;SDS011;9269;50.838;12.094;2022-09-11T06:02:02;5.07;;;4.67;;
18286;SDS011;9269;50.838;12.094;2022-09-11T06:04:31;5.07;;;4.43;;
18286;SDS011;9269;50.838;12.094;2022-09-11T06:06:59;5.10;;;4.60;;
18286;SDS011;9269;50.838;12.094;2022-09-11T06:09:28;4.87;;;4.47;;
18286;SDS011;9269;50.838;12.094;2022-09-11T06:11:56;4.80;;;4.40;;
18286;SDS011;9269;50.838;12.094;2022-09-11T06:14:25;4.93;;;4.53;;
18286;SDS011;9269;50.838;12.094;2022-09-11T06:16:54;5.63;;;4.87;;
18286;SDS011;9269;50.838;12.094;2022-09-11T06:19:24;5.73;;;4.57;;
18286;SDS011;9269;50.838;12.094;2022-09-11T06:21:52;5.47;;;4.97;;
18286;SDS011;9269;50.838;12.094;2022-09-11T06:24:22;5.53;;;5.03;;
18286;SDS011;9269;50.838;12.094;2022-09-11T06:26:51;4.93;;;4.53;;
18286;SDS011;9269;50.838;12.094;2022-09-11T06:29:20;4.83;;;4.43;;
18286;SDS011;9269;50.838;12.094;2022-09-11T06:31:49;5.73;;;5.23;;
18286;SDS011;9269;50.838;12.094;2022-09-11T06:34:19;5.10;;;4.60;;
18286;SDS011;9269;50.838;12.094;2022-09-11T06:36:48;5.13;;;4.63;;
18286;SDS011;9269;50.838;12.094;2022-09-11T06:39:18;5.60;;;5.07;;
18286;SDS011;9269;50.838;12.094;2022-09-11T06:41:48;4.67;;;4.30;;
18286;SDS011;9269;50.838;12.094;2022-09-11T06:44:16;5.50;;;4.70;;
18286;SDS011;9269;50.838;12.094;2022-09-11T06:46:45;5.73;;;5.20;;
18286;SDS011;9269;50.838;12.094;2022-09-11T06:49:16;5.03;;;4.63;;
18286;SDS011;9269;50.838;12.094;2022-09-11T06:51:45;5.43;;;4.93;;
18286;SDS011;9269;50.838;12.094;2022-09-11T06:54:15;5.57;;;5.07;;
18286;SDS011;9269;50.838;12.094;2022-09-11T06:56:45;7.13;;;5.87;;
18286;SDS011;9269;50.838;12.094;2022-09-11T06:59:14;5.87;;;5.37;;
18286;SDS011;9269;50.838;12.094;2022-09-11T07:01:43;6.57;;;5.83;;
18286;SDS011;9269;50.838;12.094;2022-09-11T07:04:11;7.00;;;6.23;;
18286;SDS011;9269;50.838;12.094;2022-09-11T07:06:41;7.87;;;5.77;;
18286;SDS011;9269;50.838;12.094;2022-09-11T07:09:10;6.00;;;5.50;;
18286;SDS011;9269;50.838;12.094;2022-09-11T07:11:38;7.70;;;7.00;;
18286;SDS011;9269;50.838;12.094;2022-09-11T07:14:09;7.00;;;6.27;;
18286;SDS011;9269;50.838;12.094;2022-09-11T07:16:37;6.70;;;6.00;;
18286;SDS011;9269;50.838;12.094;2022-09-11T07:19:06;11.30;;;8.57;;
18286;SDS011;9269;50.838;12.094;2022-09-11T07:21:36;10.50;;;9.40;;
18286;SDS011;9269;50.838;12.094;2022-09-11T07:24:07;10.57;;;9.47;;
18286;SDS011;9269;50.838;12.094;2022-09-11T07:26:37;11.00;;;9.93;;
18286;SDS011;9269;50.838;12.094;2022-09-11T07:29:06;13.57;;;12.07;;
18286;SDS011;9269;50.838;12.094;2022-09-11T07:31:38;16.47;;;13.60;;
18286;SDS011;9269;50.838;12.094;2022-09-11T07:34:07;13.27;;;11.90;;
18286;SDS011;9269;50.838;12.094;2022-09-11T07:36:36;13.67;;;12.27;;
18286;SDS011;9269;50.838;12.094;2022-09-11T07:39:04;12.57;;;11.37;;
18286;SDS011;9269;50.838;12.094;2022-09-11T07:41:33;12.00;;;10.90;;
18286;SDS011;9269;50.838;12.094;2022-09-11T07:44:02;11.20;;;10.20;;
18286;SDS011;9269;50.838;12.094;2022-09-11T07:46:33;13.60;;;11.30;;
18286;SDS011;9269;50.838;12.094;2022-09-11T07:49:05;14.00;;;12.30;;
18286;SDS011;9269;50.838;12.094;2022-09-11T07:51:35;15.60;;;13.83;;
18286;SDS011;9269;50.838;12.094;2022-09-11T07:54:04;16.03;;;14.40;;
18286;SDS011;9269;50.838;12.094;2022-09-11T07:56:35;16.77;;;14.97;;
18286;SDS011;9269;50.838;12.094;2022-09-11T07:59:05;16.70;;;14.90;;
18286;SDS011;9269;50.838;12.094;2022-09-11T08:01:35;22.83;;;18.73;;
18286;SDS011;9269;50.838;12.094;2022-09-11T08:04:05;19.00;;;17.03;;
18286;SDS011;9269;50.838;12.094;2022-09-11T08:06:35;18.90;;;17.00;;
18286;SDS011;9269;50.838;12.094;2022-09-11T08:09:04;20.43;;;18.33;;
18286;SDS011;9269;50.838;12.094;2022-09-11T08:11:36;20.50;;;18.27;;
18286;SDS011;9269;50.838;12.094;2022-09-11T08:14:06;19.57;;;17.47;;
18286;SDS011;9269;50.838;12.094;2022-09-11T08:16:35;23.00;;;20.57;;
18286;SDS011;9269;50.838;12.094;2022-09-11T08:19:04;22.37;;;20.00;;
18286;SDS011;9269;50.838;12.094;2022-09-11T08:21:33;22.37;;;19.80;;
18286;SDS011;9269;50.838;12.094;2022-09-11T08:24:01;21.97;;;18.10;;
18286;SDS011;9269;50.838;12.094;2022-09-11T08:26:34;21.43;;;19.17;;
18286;SDS011;9269;50.838;12.094;2022-09-11T08:29:04;22.50;;;20.10;;
18286;SDS011;9269;50.838;12.094;2022-09-11T08:31:32;21.33;;;19.23;;
18286;SDS011;9269;50.838;12.094;2022-09-11T08:34:01;20.63;;;18.63;;
18286;SDS011;9269;50.838;12.094;2022-09-11T08:36:30;20.77;;;18.70;;
18286;SDS011;9269;50.838;12.094;2022-09-11T08:38:59;21.63;;;19.43;;
18286;SDS011;9269;50.838;12.094;2022-09-11T08:41:31;20.17;;;18.10;;
18286;SDS011;9269;50.838;12.094;2022-09-11T08:44:10;20.47;;;18.40;;
18286;SDS011;9269;50.838;12.094;2022-09-11T08:46:44;19.33;;;17.43;;
18286;SDS011;9269;50.838;12.094;2022-09-11T08:49:17;21.27;;;18.70;;
18286;SDS011;9269;50.838;12.094;2022-09-11T08:51:52;19.53;;;17.67;;
18286;SDS011;9269;50.838;12.094;2022-09-11T08:54:25;21.40;;;19.20;;
18286;SDS011;9269;50.838;12.094;2022-09-11T08:57:01;19.03;;;17.13;;
18286;SDS011;9269;50.838;12.094;2022-09-11T08:59:42;21.20;;;19.17;;
18286;SDS011;9269;50.838;12.094;2022-09-11T09:02:39;19.97;;;17.97;;
18286;SDS011;9269;50.838;12.094;2022-09-11T09:05:24;19.73;;;18.03;;
18286;SDS011;9269;50.838;12.094;2022-09-11T09:08:02;20.10;;;18.20;;
18286;SDS011;9269;50.838;12.094;2022-09-11T09:10:49;20.50;;;18.60;;
18286;SDS011;9269;50.838;12.094;2022-09-11T09:13:31;20.37;;;18.37;;
18286;SDS011;9269;50.838;12.094;2022-09-11T09:16:18;19.43;;;17.73;;
18286;SDS011;9269;50.838;12.094;2022-09-11T09:19:01;21.80;;;19.60;;
18286;SDS011;9269;50.838;12.094;2022-09-11T09:21:34;20.63;;;18.83;;
18286;SDS011;9269;50.838;12.094;2022-09-11T09:24:10;21.30;;;19.17;;
18286;SDS011;9269;50.838;12.094;2022-09-11T09:26:47;19.77;;;17.97;;
18286;SDS011;9269;50.838;12.094;2022-09-11T09:29:20;20.80;;;18.93;;
18286;SDS011;9269;50.838;12.094;2022-09-11T09:31:54;22.23;;;20.00;;
18286;SDS011;9269;50.838;12.094;2022-09-11T09:34:29;22.20;;;20.03;;
18286;SDS011;9269;50.838;12.094;2022-09-11T09:37:03;20.63;;;18.67;;
18286;SDS011;9269;50.838;12.094;2022-09-11T09:39:38;20.03;;;18.10;;
18286;SDS011;9269;50.838;12.094;2022-09-11T09:45:08;19.63;;;17.80;;
18286;SDS011;9269;50.838;12.094;2022-09-11T09:47:49;19.13;;;17.33;;
18286;SDS011;9269;50.838;12.094;2022-09-11T09:50:20;21.13;;;19.17;;
18286;SDS011;9269;50.838;12.094;2022-09-11T09:52:52;21.70;;;19.50;;
18286;SDS011;9269;50.838;12.094;2022-09-11T09:55:30;19.90;;;18.10;;
18286;SDS011;9269;50.838;12.094;2022-09-11T09:58:01;19.60;;;17.80;;
18286;SDS011;9269;50.838;12.094;2022-09-11T10:00:30;19.37;;;17.57;;
18286;SDS011;9269;50.838;12.094;2022-09-11T10:03:10;20.00;;;18.17;;
18286;SDS011;9269;50.838;12.094;2022-09-11T10:05:45;19.47;;;17.67;;
18286;SDS011;9269;50.838;12.094;2022-09-11T10:08:26;18.17;;;16.57;;
18286;SDS011;9269;50.838;12.094;2022-09-11T10:11:00;19.77;;;17.97;;
18286;SDS011;9269;50.838;12.094;2022-09-11T10:13:31;20.60;;;18.63;;
18286;SDS011;9269;50.838;12.094;2022-09-11T10:16:03;19.57;;;17.57;;
18286;SDS011;9269;50.838;12.094;2022-09-11T10:18:47;19.70;;;17.80;;
18286;SDS011;9269;50.838;12.094;2022-09-11T10:21:21;20.67;;;18.77;;
18286;SDS011;9269;50.838;12.094;2022-09-11T10:23:57;18.40;;;16.70;;
18286;SDS011;9269;50.838;12.094;2022-09-11T10:26:31;18.47;;;16.77;;
18286;SDS011;9269;50.838;12.094;2022-09-11T10:29:05;18.80;;;17.00;;
18286;SDS011;9269;50.838;12.094;2022-09-11T10:31:37;17.20;;;15.53;;
18286;SDS011;9269;50.838;12.094;2022-09-11T10:34:13;17.10;;;15.50;;
18286;SDS011;9269;50.838;12.094;2022-09-11T10:36:52;17.03;;;15.43;;
18286;SDS011;9269;50.838;12.094;2022-09-11T10:39:23;16.30;;;14.73;;
18286;SDS011;9269;50.838;12.094;2022-09-11T10:41:55;14.80;;;13.30;;
18286;SDS011;9269;50.838;12.094;2022-09-11T10:44:25;13.97;;;12.57;;
18286;SDS011;9269;50.838;12.094;2022-09-11T10:47:01;12.77;;;11.67;;
18286;SDS011;9269;50.838;12.094;2022-09-11T10:49:34;12.50;;;11.30;;
18286;SDS011;9269;50.838;12.094;2022-09-11T10:52:13;11.83;;;10.70;;
18286;SDS011;9269;50.838;12.094;2022-09-11T10:54:52;12.47;;;11.30;;
18286;SDS011;9269;50.838;12.094;2022-09-11T10:57:28;12.27;;;11.07;;
18286;SDS011;9269;50.838;12.094;2022-09-11T11:00:05;11.60;;;10.50;;
18286;SDS011;9269;50.838;12.094;2022-09-11T11:02:42;11.73;;;10.53;;
18286;SDS011;9269;50.838;12.094;2022-09-11T11:05:17;11.00;;;10.10;;
18286;SDS011;9269;50.838;12.094;2022-09-11T11:10:47;10.47;;;9.60;;
18286;SDS011;9269;50.838;12.094;2022-09-11T11:13:30;9.63;;;8.80;;
18286;SDS011;9269;50.838;12.094;2022-09-11T11:16:09;10.03;;;9.13;;
18286;SDS011;9269;50.838;12.094;2022-09-11T11:18:47;9.23;;;8.33;;
18286;SDS011;9269;50.838;12.094;2022-09-11T11:21:29;9.23;;;8.40;;
18286;SDS011;9269;50.838;12.094;2022-09-11T11:24:12;8.17;;;7.47;;
18286;SDS011;9269;50.838;12.094;2022-09-11T11:26:57;10.47;;;9.57;;
18286;SDS011;9269;50.838;12.094;2022-09-11T11:29:42;10.43;;;9.53;;
18286;SDS011;9269;50.838;12.094;2022-09-11T11:32:22;9.80;;;8.90;;
18286;SDS011;9269;50.838;12.094;2022-09-11T11:35:10;10.10;;;9.10;;
18286;SDS011;9269;50.838;12.094;2022-09-11T11:37:51;9.63;;;8.60;;
18286;SDS011;9269;50.838;12.094;2022-09-11T11:40:27;9.93;;;8.90;;
18286;SDS011;9269;50.838;12.094;2022-09-11T11:42:59;9.93;;;9.03;;
18286;SDS011;9269;50.838;12.094;2022-09-11T11:45:33;9.90;;;9.00;;
18286;SDS011;9269;50.838;12.094;2022-09-11T11:48:08;9.93;;;8.97;;
18286;SDS011;9269;50.838;12.094;2022-09-11T11:50:41;11.50;;;10.10;;
18286;SDS011;9269;50.838;12.094;2022-09-11T11:53:17;11.97;;;10.97;;
18286;SDS011;9269;50.838;12.094;2022-09-11T11:55:53;11.83;;;10.33;;
18286;SDS011;9269;50.838;12.094;2022-09-11T11:58:36;11.37;;;10.37;;
18286;SDS011;9269;50.838;12.094;2022-09-11T12:01:12;12.63;;;11.43;;
18286;SDS011;9269;50.838;12.094;2022-09-11T12:03:46;12.43;;;11.07;;
18286;SDS011;9269;50.838;12.094;2022-09-11T12:06:19;13.23;;;12.10;;
18286;SDS011;9269;50.838;12.094;2022-09-11T12:08:49;13.17;;;11.80;;
18286;SDS011;9269;50.838;12.094;2022-09-11T12:11:21;13.17;;;11.97;;
18286;SDS011;9269;50.838;12.094;2022-09-11T12:13:55;13.90;;;12.70;;
18286;SDS011;9269;50.838;12.094;2022-09-11T12:16:25;15.53;;;14.03;;
18286;SDS011;9269;50.838;12.094;2022-09-11T12:19:12;15.17;;;13.77;;
18286;SDS011;9269;50.838;12.094;2022-09-11T12:22:03;13.77;;;12.57;;
18286;SDS011;9269;50.838;12.094;2022-09-11T12:24:51;13.00;;;11.80;;
18286;SDS011;9269;50.838;12.094;2022-09-11T12:27:31;11.70;;;10.70;;
18286;SDS011;9269;50.838;12.094;2022-09-11T12:30:21;10.97;;;10.07;;
18286;SDS011;9269;50.838;12.094;2022-09-11T12:32:52;11.40;;;10.40;;
18286;SDS011;9269;50.838;12.094;2022-09-11T12:35:25;13.10;;;11.87;;
18286;SDS011;9269;50.838;12.094;2022-09-11T12:38:02;12.00;;;10.80;;
18286;SDS011;9269;50.838;12.094;2022-09-11T12:40:45;11.47;;;10.27;;
18286;SDS011;9269;50.838;12.094;2022-09-11T12:49:38;12.27;;;11.17;;
18286;SDS011;9269;50.838;12.094;2022-09-11T12:52:17;12.03;;;10.93;;
18286;SDS011;9269;50.838;12.094;2022-09-11T12:55:20;11.67;;;10.67;;
18286;SDS011;9269;50.838;12.094;2022-09-11T12:58:01;10.60;;;9.60;;
18286;SDS011;9269;50.838;12.094;2022-09-11T13:00:34;9.80;;;8.90;;
18286;SDS011;9269;50.838;12.094;2022-09-11T13:03:06;9.77;;;8.80;;
18286;SDS011;9269;50.838;12.094;2022-09-11T13:05:43;8.83;;;8.13;;
18286;SDS011;9269;50.838;12.094;2022-09-11T13:08:20;8.93;;;8.13;;
18286;SDS011;9269;50.838;12.094;2022-09-11T13:10:52;7.40;;;6.70;;
18286;SDS011;9269;50.838;12.094;2022-09-11T13:13:38;6.90;;;6.30;;
18286;SDS011;9269;50.838;12.094;2022-09-11T13:16:16;7.23;;;6.63;;
18286;SDS011;9269;50.838;12.094;2022-09-11T13:18:45;7.30;;;6.60;;
18286;SDS011;9269;50.838;12.094;2022-09-11T13:21:14;7.90;;;7.20;;
18286;SDS011;9269;50.838;12.094;2022-09-11T13:23:50;7.83;;;7.03;;
18286;SDS011;9269;50.838;12.094;2022-09-11T13:26:22;7.20;;;6.70;;
18286;SDS011;9269;50.838;12.094;2022-09-11T13:28:54;7.67;;;7.07;;
18286;SDS011;9269;50.838;12.094;2022-09-11T13:31:28;6.90;;;6.37;;
18286;SDS011;9269;50.838;12.094;2022-09-11T13:34:00;8.00;;;7.30;;
18286;SDS011;9269;50.838;12.094;2022-09-11T13:36:32;7.53;;;6.83;;
18286;SDS011;9269;50.838;12.094;2022-09-11T13:39:02;7.20;;;6.60;;
18286;SDS011;9269;50.838;12.094;2022-09-11T13:41:33;7.43;;;6.83;;
18286;SDS011;9269;50.838;12.094;2022-09-11T13:44:08;9.57;;;8.77;;
18286;SDS011;9269;50.838;12.094;2022-09-11T13:46:50;9.47;;;8.77;;
18286;SDS011;9269;50.838;12.094;2022-09-11T13:49:23;7.53;;;7.03;;
18286;SDS011;9269;50.838;12.094;2022-09-11T13:51:57;7.87;;;7.17;;
18286;SDS011;9269;50.838;12.094;2022-09-11T13:54:29;7.93;;;7.23;;
18286;SDS011;9269;50.838;12.094;2022-09-11T13:57:10;7.80;;;7.20;;
18286;SDS011;9269;50.838;12.094;2022-09-11T13:59:46;7.60;;;7.00;;
18286;SDS011;9269;50.838;12.094;2022-09-11T14:05:09;6.70;;;6.20;;
18286;SDS011;9269;50.838;12.094;2022-09-11T14:07:42;6.70;;;6.20;;
18286;SDS011;9269;50.838;12.094;2022-09-11T14:10:16;6.50;;;5.90;;
18286;SDS011;9269;50.838;12.094;2022-09-11T14:12:49;6.57;;;6.07;;
18286;SDS011;9269;50.838;12.094;2022-09-11T14:15:26;6.07;;;5.63;;
18286;SDS011;9269;50.838;12.094;2022-09-11T14:17:59;6.63;;;6.03;;
18286;SDS011;9269;50.838;12.094;2022-09-11T14:20:29;6.13;;;5.70;;
18286;SDS011;9269;50.838;12.094;2022-09-11T14:22:59;6.83;;;6.33;;
18286;SDS011;9269;50.838;12.094;2022-09-11T14:25:31;7.03;;;6.47;;
18286;SDS011;9269;50.838;12.094;2022-09-11T14:27:59;7.13;;;6.53;;
18286;SDS011;9269;50.838;12.094;2022-09-11T14:30:30;7.30;;;6.80;;
18286;SDS011;9269;50.838;12.094;2022-09-11T14:35:51;7.07;;;6.57;;
18286;SDS011;9269;50.838;12.094;2022-09-11T14:38:25;6.27;;;5.83;;
18286;SDS011;9269;50.838;12.094;2022-09-11T14:40:54;6.60;;;6.10;;
18286;SDS011;9269;50.838;12.094;2022-09-11T14:43:29;6.70;;;6.20;;
18286;SDS011;9269;50.838;12.094;2022-09-11T14:46:09;7.43;;;6.90;;
18286;SDS011;9269;50.838;12.094;2022-09-11T14:48:37;6.37;;;5.87;;
18286;SDS011;9269;50.838;12.094;2022-09-11T14:51:09;6.40;;;5.87;;
18286;SDS011;9269;50.838;12.094;2022-09-11T14:53:39;6.33;;;5.83;;
18286;SDS011;9269;50.838;12.094;2022-09-11T14:56:09;6.20;;;5.70;;
18286;SDS011;9269;50.838;12.094;2022-09-11T14:58:37;6.13;;;5.63;;
18286;SDS011;9269;50.838;12.094;2022-09-11T15:01:05;5.43;;;5.00;;
18286;SDS011;9269;50.838;12.094;2022-09-11T15:03:36;5.03;;;4.63;;
18286;SDS011;9269;50.838;12.094;2022-09-11T15:06:16;5.47;;;4.90;;
18286;SDS011;9269;50.838;12.094;2022-09-11T15:08:46;4.47;;;4.17;;
18286;SDS011;9269;50.838;12.094;2022-09-11T15:11:14;5.47;;;4.97;;
18286;SDS011;9269;50.838;12.094;2022-09-11T15:13:43;5.93;;;5.43;;
18286;SDS011;9269;50.838;12.094;2022-09-11T15:16:31;5.73;;;5.33;;
18286;SDS011;9269;50.838;12.094;2022-09-11T15:19:02;6.70;;;6.20;;
18286;SDS011;9269;50.838;12.094;2022-09-11T15:21:30;6.63;;;6.03;;
18286;SDS011;9269;50.838;12.094;2022-09-11T15:24:03;5.60;;;5.10;;
18286;SDS011;9269;50.838;12.094;2022-09-11T15:26:32;5.50;;;5.10;;
18286;SDS011;9269;50.838;12.094;2022-09-11T15:29:02;5.00;;;4.57;;
18286;SDS011;9269;50.838;12.094;2022-09-11T15:31:36;5.50;;;5.10;;
18286;SDS011;9269;50.838;12.094;2022-09-11T15:34:08;5.57;;;5.07;;
18286;SDS011;9269;50.838;12.094;2022-09-11T15:36:38;5.87;;;5.27;;
18286;SDS011;9269;50.838;12.094;2022-09-11T15:39:09;5.27;;;4.87;;